Time;durP1;ratioP1;P1;durP2;ratioP2;P2;SDS_P1;SDS_P2;PMS_P1;PMS_P2;Temp;Humidity;BMP_temperature;BMP_pressure;BME280_temperature;BME280_humidity;BME280_pressure;Samples;Min_cycle;Max_cycle;Signal;HPM_P1;HPM_P2
2023/11/22 00:00:13;;;;;;;38.55;24.38;;;1.60;99.90;;;;;;2084240;28;20029;-75
2023/11/22 00:01:14;;;;;;;38.85;23.58;;;1.60;99.90;;;;;;2090878;28;20024;-76
2023/11/22 00:02:14;;;;;;;40.00;25.20;;;1.60;99.90;;;;;;2084489;28;20100;-75
2023/11/22 00:03:15;;;;;;;38.63;24.85;;;1.60;99.90;;;;;;2089481;28;20067;-76
2023/11/22 00:04:17;;;;;;;40.13;24.60;;;1.60;99.90;;;;;;2091215;28;20454;-75
2023/11/22 00:05:18;;;;;;;38.20;24.20;;;1.60;99.90;;;;;;2090565;28;20029;-75
2023/11/22 00:06:21;;;;;;;39.00;24.48;;;1.60;99.90;;;;;;2081812;28;20049;-76
2023/11/22 00:07:22;;;;;;;40.75;24.58;;;1.60;99.90;;;;;;2079374;28;20025;-76
2023/11/22 00:08:23;;;;;;;37.67;23.17;;;1.60;99.90;;;;;;2090534;28;20174;-76
2023/11/22 00:09:23;;;;;;;38.13;23.75;;;1.60;99.90;;;;;;2086126;28;20514;-77
2023/11/22 00:10:24;;;;;;;37.95;23.75;;;1.60;99.90;;;;;;2093067;28;20036;-77
2023/11/22 00:11:24;;;;;;;37.88;23.88;;;1.60;99.90;;;;;;2091120;28;20112;-76
2023/11/22 00:12:25;;;;;;;40.85;23.95;;;1.60;99.90;;;;;;2091573;28;20036;-76
2023/11/22 00:13:26;;;;;;;38.88;24.40;;;1.60;99.90;;;;;;2090398;28;20528;-74
2023/11/22 00:14:27;;;;;;;38.97;24.27;;;1.50;99.90;;;;;;2082917;28;20557;-76
2023/11/22 00:15:27;;;;;;;38.17;24.27;;;1.50;99.90;;;;;;2084357;28;20493;-75
2023/11/22 00:16:28;;;;;;;39.03;24.60;;;1.50;99.90;;;;;;2086532;28;20056;-74
2023/11/22 00:17:28;;;;;;;39.75;24.75;;;1.50;99.90;;;;;;2093963;28;20021;-74
2023/11/22 00:18:30;;;;;;;40.05;24.65;;;1.60;99.90;;;;;;2083778;28;20032;-75
2023/11/22 00:19:31;;;;;;;39.83;24.13;;;1.60;99.90;;;;;;2084391;28;20021;-75
2023/11/22 00:20:33;;;;;;;40.13;23.50;;;1.60;99.90;;;;;;2091009;28;20135;-76
2023/11/22 00:21:34;;;;;;;38.60;23.85;;;1.60;99.90;;;;;;2092626;28;20013;-75
2023/11/22 00:22:35;;;;;;;38.22;23.90;;;1.60;99.90;;;;;;2083273;28;20036;-75
2023/11/22 00:23:35;;;;;;;39.63;24.10;;;1.70;99.90;;;;;;2083527;28;20020;-75
2023/11/22 00:24:36;;;;;;;38.15;24.00;;;1.70;99.90;;;;;;2085635;28;20029;-76
2023/11/22 00:25:37;;;;;;;38.45;23.92;;;1.60;99.90;;;;;;2085204;28;20218;-76
2023/11/22 00:26:37;;;;;;;42.53;25.40;;;1.60;99.90;;;;;;2085132;28;20037;-75
2023/11/22 00:27:38;;;;;;;39.45;24.08;;;1.60;99.90;;;;;;2078535;28;20575;-76
2023/11/22 00:28:39;;;;;;;40.10;24.05;;;1.70;99.90;;;;;;2087522;28;20025;-77
2023/11/22 00:29:40;;;;;;;38.58;25.00;;;1.70;99.90;;;;;;2091241;28;20100;-77
2023/11/22 00:30:40;;;;;;;37.83;23.15;;;1.70;99.90;;;;;;2087152;28;20025;-76
2023/11/22 00:31:41;;;;;;;39.17;24.50;;;1.70;99.90;;;;;;2082458;28;20064;-77
2023/11/22 00:32:41;;;;;;;37.60;23.38;;;1.80;99.90;;;;;;2082769;28;20045;-76
2023/11/22 00:33:42;;;;;;;35.22;21.75;;;1.80;99.90;;;;;;2092781;28;20111;-74
2023/11/22 00:34:42;;;;;;;38.78;23.38;;;1.80;99.90;;;;;;2086399;28;20025;-75
2023/11/22 00:35:43;;;;;;;36.00;23.50;;;1.80;99.90;;;;;;2087216;28;20025;-75
2023/11/22 00:36:44;;;;;;;39.92;24.10;;;1.70;99.90;;;;;;2082825;28;20905;-75
2023/11/22 00:37:44;;;;;;;37.45;23.77;;;1.70;99.90;;;;;;2082546;28;20087;-75
2023/11/22 00:38:45;;;;;;;38.85;23.92;;;1.70;99.90;;;;;;2091389;28;20506;-76
2023/11/22 00:39:46;;;;;;;37.85;23.63;;;1.80;99.90;;;;;;2092197;28;20032;-74
2023/11/22 00:40:46;;;;;;;37.40;23.55;;;1.70;99.90;;;;;;2087929;28;20070;-74
2023/11/22 00:41:47;;;;;;;40.33;23.85;;;1.70;99.90;;;;;;2082917;28;20028;-74
2023/11/22 00:42:47;;;;;;;39.15;23.83;;;1.70;99.90;;;;;;2073922;28;20049;-75
2023/11/22 00:43:48;;;;;;;40.97;23.67;;;1.70;99.90;;;;;;2075959;28;20033;-76
2023/11/22 00:44:49;;;;;;;38.58;22.60;;;1.70;99.90;;;;;;2066898;28;20046;-75
2023/11/22 00:45:50;;;;;;;39.00;24.30;;;1.60;99.90;;;;;;2083650;28;20103;-75
2023/11/22 00:46:51;;;;;;;39.55;23.77;;;1.60;99.90;;;;;;2082911;28;20845;-75
2023/11/22 00:47:52;;;;;;;40.05;24.70;;;1.50;99.90;;;;;;2079574;28;20033;-74
2023/11/22 00:48:52;;;;;;;39.40;23.70;;;1.60;99.90;;;;;;2091187;28;20028;-75
2023/11/22 00:49:53;;;;;;;38.97;23.60;;;1.60;99.90;;;;;;2091149;28;20127;-76
2023/11/22 00:50:54;;;;;;;36.58;22.20;;;1.60;99.90;;;;;;2078777;28;20048;-75
2023/11/22 00:51:55;;;;;;;39.38;23.50;;;1.60;99.90;;;;;;2078776;28;20081;-76
2023/11/22 00:52:55;;;;;;;37.72;23.20;;;1.60;99.90;;;;;;2071135;28;20045;-76
2023/11/22 00:53:56;;;;;;;41.88;23.95;;;1.60;99.90;;;;;;2078666;28;20064;-75
2023/11/22 00:54:57;;;;;;;39.13;23.48;;;1.60;99.90;;;;;;2083132;28;20407;-75
2023/11/22 00:55:58;;;;;;;38.80;24.13;;;1.50;99.90;;;;;;2087215;28;20048;-75
2023/11/22 00:56:58;;;;;;;38.10;24.02;;;1.60;99.90;;;;;;2086528;28;20029;-75
2023/11/22 00:58:03;;;;;;;41.53;24.20;;;1.70;99.90;;;;;;2090801;28;20036;-75
2023/11/22 00:59:04;;;;;;;39.20;24.13;;;1.60;99.90;;;;;;2084893;28;20037;-75
2023/11/22 01:00:08;;;;;;;40.17;24.40;;;1.70;99.90;;;;;;2076120;28;20036;-75
2023/11/22 01:01:09;;;;;;;38.75;24.40;;;1.70;99.90;;;;;;2077187;28;20033;-76
2023/11/22 01:02:10;;;;;;;40.13;24.98;;;1.70;99.90;;;;;;2073375;28;20037;-75
2023/11/22 01:03:11;;;;;;;40.83;24.80;;;1.70;99.90;;;;;;2070657;28;20405;-75
2023/11/22 01:04:12;;;;;;;43.67;25.67;;;1.80;99.90;;;;;;2079873;28;20412;-75
2023/11/22 01:05:12;;;;;;;42.42;25.17;;;1.80;99.90;;;;;;2085722;28;20032;-76
2023/11/22 01:06:14;;;;;;;41.42;23.60;;;1.80;99.90;;;;;;2078973;28;20447;-76
2023/11/22 01:07:15;;;;;;;40.95;24.65;;;1.80;99.90;;;;;;2083086;28;20121;-75
2023/11/22 01:08:15;;;;;;;38.97;24.20;;;1.80;99.90;;;;;;2089491;28;20028;-75
2023/11/22 01:09:16;;;;;;;39.22;23.85;;;1.70;99.90;;;;;;2083252;28;20035;-75
2023/11/22 01:10:17;;;;;;;38.75;23.92;;;1.70;99.90;;;;;;2076016;28;20029;-75
2023/11/22 01:11:17;;;;;;;38.50;23.60;;;1.80;99.90;;;;;;2086825;28;20025;-75
2023/11/22 01:12:18;;;;;;;41.63;24.85;;;1.70;99.90;;;;;;2086209;28;20021;-75
2023/11/22 01:13:18;;;;;;;40.50;24.08;;;1.80;99.90;;;;;;2075700;28;20195;-75
2023/11/22 01:14:19;;;;;;;38.95;23.38;;;1.70;99.90;;;;;;2086988;28;20033;-75
2023/11/22 01:15:20;;;;;;;39.42;24.73;;;1.70;99.90;;;;;;2078044;28;20048;-75
2023/11/22 01:16:21;;;;;;;41.25;24.65;;;1.60;99.90;;;;;;2066429;28;20101;-75
2023/11/22 01:17:22;;;;;;;37.53;22.92;;;1.60;99.90;;;;;;2078797;28;20025;-75
2023/11/22 01:18:22;;;;;;;41.38;24.48;;;1.60;99.90;;;;;;2091272;28;20760;-76
2023/11/22 01:19:23;;;;;;;41.60;25.05;;;1.70;99.90;;;;;;2087034;28;20031;-76
2023/11/22 01:20:23;;;;;;;40.08;24.23;;;1.70;99.90;;;;;;2091377;28;20025;-75
2023/11/22 01:21:25;;;;;;;43.47;24.83;;;1.70;99.90;;;;;;2080034;28;20037;-84
2023/11/22 01:22:25;;;;;;;42.83;24.73;;;1.70;99.90;;;;;;2086680;28;20594;-75
2023/11/22 01:23:27;;;;;;;44.88;25.17;;;1.70;99.90;;;;;;2084556;28;20024;-75
2023/11/22 01:24:29;;;;;;;41.75;24.95;;;1.70;99.90;;;;;;2090060;28;20056;-76
2023/11/22 01:25:29;;;;;;;40.67;24.77;;;1.70;99.90;;;;;;2077977;28;20036;-76
2023/11/22 01:26:30;;;;;;;41.97;25.52;;;1.70;99.90;;;;;;2067391;28;20034;-76
2023/11/22 01:27:31;;;;;;;40.17;24.45;;;1.70;99.90;;;;;;2083069;28;20039;-77
2023/11/22 01:28:34;;;;;;;42.78;25.00;;;1.70;99.90;;;;;;2071042;28;20025;-77
2023/11/22 01:29:35;;;;;;;40.33;24.55;;;1.70;99.90;;;;;;2080751;28;20024;-75
2023/11/22 01:30:35;;;;;;;43.60;25.25;;;1.70;99.90;;;;;;2090136;28;20600;-75
2023/11/22 01:31:36;;;;;;;42.90;25.25;;;1.70;99.90;;;;;;2083908;28;20703;-75
2023/11/22 01:32:36;;;;;;;42.10;25.40;;;1.70;99.90;;;;;;2093115;28;20052;-76
2023/11/22 01:33:37;;;;;;;45.67;26.20;;;1.60;99.90;;;;;;2092624;28;20030;-76
2023/11/22 01:34:38;;;;;;;42.78;24.90;;;1.60;99.90;;;;;;2094818;28;20070;-75
2023/11/22 01:35:38;;;;;;;46.88;26.27;;;1.60;99.90;;;;;;2089849;28;20099;-75
2023/11/22 01:36:43;;;;;;;43.95;25.85;;;1.60;99.90;;;;;;2080149;28;20024;-76
2023/11/22 01:37:44;;;;;;;43.65;23.90;;;1.70;99.90;;;;;;2082885;28;20033;-76
2023/11/22 01:38:46;;;;;;;39.80;23.95;;;1.70;99.90;;;;;;2085309;28;20026;-76
2023/11/22 01:39:46;;;;;;;43.28;25.00;;;1.60;99.90;;;;;;2076697;28;20037;-75
2023/11/22 01:40:47;;;;;;;41.90;25.65;;;1.60;99.90;;;;;;2071978;28;20035;-75
2023/11/22 01:41:49;;;;;;;42.88;25.25;;;1.70;99.90;;;;;;2083964;28;20055;-76
2023/11/22 01:42:50;;;;;;;40.78;24.30;;;1.60;99.90;;;;;;2079340;28;20017;-76
2023/11/22 01:43:51;;;;;;;46.03;25.55;;;1.50;99.90;;;;;;2085826;28;20013;-76
2023/11/22 01:44:52;;;;;;;41.28;24.90;;;1.50;99.90;;;;;;2086388;28;20838;-75
2023/11/22 01:45:55;;;;;;;42.15;24.55;;;1.50;99.90;;;;;;2087428;28;20021;-75
2023/11/22 01:46:56;;;;;;;40.60;23.83;;;1.50;99.90;;;;;;2082834;28;20020;-75
2023/11/22 01:47:57;;;;;;;39.28;23.55;;;1.60;99.90;;;;;;2074706;28;20056;-76
2023/11/22 01:48:57;;;;;;;38.63;23.88;;;1.70;99.90;;;;;;2081352;28;20040;-75
2023/11/22 01:49:58;;;;;;;42.85;23.77;;;1.60;99.90;;;;;;2083419;28;20040;-75
2023/11/22 01:50:58;;;;;;;40.80;23.92;;;1.60;99.90;;;;;;2087651;28;20042;-75
2023/11/22 01:52:00;;;;;;;39.78;24.05;;;1.60;99.90;;;;;;2090773;28;20028;-75
2023/11/22 01:53:03;;;;;;;39.55;22.95;;;1.60;99.90;;;;;;2090289;28;20044;-75
2023/11/22 01:54:05;;;;;;;38.03;22.90;;;1.60;99.90;;;;;;2091238;28;20032;-75
2023/11/22 01:55:08;;;;;;;38.20;23.00;;;1.70;99.90;;;;;;2086483;28;20032;-75
2023/11/22 01:56:09;;;;;;;37.88;22.77;;;1.70;99.90;;;;;;2088362;28;20036;-75
2023/11/22 01:57:10;;;;;;;39.92;22.65;;;1.70;99.90;;;;;;2082733;28;20024;-75
2023/11/22 01:58:11;;;;;;;40.10;23.60;;;1.60;99.90;;;;;;2082007;28;20573;-75
2023/11/22 01:59:13;;;;;;;36.72;22.88;;;1.60;99.90;;;;;;2082780;28;20083;-75
2023/11/22 02:00:14;;;;;;;41.28;23.20;;;1.60;99.90;;;;;;2075401;28;20530;-76
2023/11/22 02:01:15;;;;;;;39.05;23.33;;;1.60;99.90;;;;;;2078564;28;20084;-75
2023/11/22 02:02:16;;;;;;;39.90;23.55;;;1.60;99.90;;;;;;2081406;28;20032;-76
2023/11/22 02:03:17;;;;;;;37.30;22.55;;;1.60;99.90;;;;;;2090638;28;20345;-76
2023/11/22 02:04:18;;;;;;;36.92;21.73;;;1.60;99.90;;;;;;2090432;28;20033;-76
2023/11/22 02:05:18;;;;;;;37.60;22.10;;;1.60;99.90;;;;;;2079427;28;20057;-76
2023/11/22 02:06:21;;;;;;;39.30;22.80;;;1.60;99.90;;;;;;2078824;28;20087;-75
2023/11/22 02:07:22;;;;;;;35.75;21.63;;;1.60;99.90;;;;;;2085289;28;20100;-77
2023/11/22 02:08:23;;;;;;;38.60;22.88;;;1.60;99.90;;;;;;2085572;28;20703;-76
2023/11/22 02:09:24;;;;;;;41.28;23.45;;;1.50;99.90;;;;;;2081966;28;20020;-76
2023/11/22 02:10:25;;;;;;;35.65;21.80;;;1.50;99.90;;;;;;2082237;28;20112;-77
2023/11/22 02:11:27;;;;;;;37.35;22.40;;;1.60;99.90;;;;;;2084865;28;20232;-76
2023/11/22 02:12:28;;;;;;;35.95;21.45;;;1.60;99.90;;;;;;2078616;28;20577;-76
2023/11/22 02:13:29;;;;;;;36.80;22.25;;;1.60;99.90;;;;;;2081887;28;20036;-76
2023/11/22 02:14:29;;;;;;;39.50;22.83;;;1.60;99.90;;;;;;2079169;28;20027;-77
2023/11/22 02:15:31;;;;;;;36.33;22.20;;;1.60;99.90;;;;;;2078398;28;20534;-75
2023/11/22 02:16:32;;;;;;;37.30;22.48;;;1.50;99.90;;;;;;2074965;28;20072;-75
2023/11/22 02:17:34;;;;;;;39.80;22.40;;;1.50;99.90;;;;;;2078167;28;20036;-74
2023/11/22 02:18:37;;;;;;;35.42;22.20;;;1.50;99.90;;;;;;2077833;28;20067;-76
2023/11/22 02:19:38;;;;;;;38.63;22.27;;;1.50;99.90;;;;;;2088751;28;20024;-74
2023/11/22 02:20:38;;;;;;;36.65;22.25;;;1.50;99.90;;;;;;2089857;28;20020;-76
2023/11/22 02:21:40;;;;;;;36.60;21.80;;;1.60;99.90;;;;;;2079986;28;20542;-77
2023/11/22 02:22:45;;;;;;;39.65;22.08;;;1.50;99.90;;;;;;2074523;28;20043;-75
2023/11/22 02:23:46;;;;;;;38.95;23.00;;;1.50;99.90;;;;;;2075266;28;20093;-74
2023/11/22 02:24:47;;;;;;;36.42;21.88;;;1.60;99.90;;;;;;2084734;28;20056;-72
2023/11/22 02:25:48;;;;;;;37.05;22.23;;;1.60;99.90;;;;;;2074021;28;20504;-73
2023/11/22 02:26:48;;;;;;;37.65;22.25;;;1.70;99.90;;;;;;2074653;28;20479;-72
2023/11/22 02:27:49;;;;;;;38.55;22.40;;;1.70;99.90;;;;;;2082679;28;20048;-73
2023/11/22 02:28:49;;;;;;;35.83;22.23;;;1.80;99.90;;;;;;2086715;28;20025;-73
2023/11/22 02:29:51;;;;;;;37.50;21.77;;;1.80;99.90;;;;;;2085939;28;20017;-73
2023/11/22 02:30:51;;;;;;;36.22;21.58;;;1.80;99.90;;;;;;2084987;28;20108;-73
2023/11/22 02:31:52;;;;;;;36.03;21.65;;;1.70;99.90;;;;;;2075038;28;20064;-73
2023/11/22 02:32:53;;;;;;;39.35;22.27;;;1.70;99.90;;;;;;2087332;28;20029;-74
2023/11/22 02:33:55;;;;;;;38.38;22.27;;;1.70;99.90;;;;;;2082559;28;20029;-74
2023/11/22 02:34:55;;;;;;;37.38;22.27;;;1.70;99.90;;;;;;2082097;28;20068;-74
2023/11/22 02:35:57;;;;;;;36.60;22.13;;;1.70;99.90;;;;;;2082594;28;20105;-74
2023/11/22 02:36:58;;;;;;;35.42;21.63;;;1.80;99.90;;;;;;2090012;28;20036;-74
2023/11/22 02:37:59;;;;;;;37.70;21.98;;;1.80;99.90;;;;;;2090493;28;20051;-74
2023/11/22 02:39:00;;;;;;;37.20;22.52;;;1.80;99.90;;;;;;2082595;28;20087;-75
2023/11/22 02:40:14;;;;;;;37.88;23.17;;;1.70;99.90;;;;;;2082344;28;20087;-74
2023/11/22 02:41:15;;;;;;;37.55;21.95;;;1.70;99.90;;;;;;2084311;28;20399;-74
2023/11/22 02:42:15;;;;;;;36.83;22.83;;;1.70;99.90;;;;;;2086328;28;20032;-74
2023/11/22 02:43:16;;;;;;;39.45;22.50;;;1.70;99.90;;;;;;2081829;28;20037;-75
2023/11/22 02:44:17;;;;;;;37.35;22.50;;;1.70;99.90;;;;;;2082414;28;20295;-73
2023/11/22 02:45:19;;;;;;;36.17;22.15;;;1.70;99.90;;;;;;2090433;28;20406;-72
2023/11/22 02:46:19;;;;;;;38.45;22.52;;;1.70;99.90;;;;;;2090477;28;20604;-74
2023/11/22 02:47:20;;;;;;;39.58;23.33;;;1.60;99.90;;;;;;2086500;28;20024;-72
2023/11/22 02:48:20;;;;;;;39.65;23.00;;;1.70;99.90;;;;;;2077647;28;20510;-73
2023/11/22 02:49:21;;;;;;;39.38;22.83;;;1.60;99.90;;;;;;2062627;28;20034;-73
2023/11/22 02:50:22;;;;;;;37.72;22.63;;;1.60;99.90;;;;;;2065171;28;20030;-73
2023/11/22 02:51:22;;;;;;;41.25;22.85;;;1.60;99.90;;;;;;2074022;28;20035;-74
2023/11/22 02:52:26;;;;;;;41.03;22.92;;;1.60;99.90;;;;;;2069852;28;20048;-73
2023/11/22 02:53:27;;;;;;;45.67;25.13;;;1.60;99.90;;;;;;2070032;28;20060;-73
2023/11/22 02:54:28;;;;;;;40.08;22.67;;;1.60;99.90;;;;;;2081530;28;20580;-73
2023/11/22 02:55:29;;;;;;;42.85;24.48;;;1.60;99.90;;;;;;2078121;28;20029;-73
2023/11/22 02:56:30;;;;;;;47.13;26.92;;;1.60;99.90;;;;;;2074238;28;20431;-74
2023/11/22 02:57:31;;;;;;;40.13;24.08;;;1.70;99.90;;;;;;2078603;28;20245;-73
2023/11/22 02:58:31;;;;;;;43.60;24.08;;;1.70;99.90;;;;;;2091303;28;20037;-74
2023/11/22 02:59:32;;;;;;;42.60;23.98;;;1.70;99.90;;;;;;2091497;28;20110;-73
2023/11/22 03:00:34;;;;;;;40.38;23.92;;;1.70;99.90;;;;;;2091929;28;20028;-72
2023/11/22 03:01:35;;;;;;;43.75;25.05;;;1.70;99.90;;;;;;2089556;28;20035;-72
2023/11/22 03:02:37;;;;;;;40.75;24.17;;;1.70;99.90;;;;;;2084407;28;20498;-73
2023/11/22 03:03:37;;;;;;;42.45;24.48;;;1.70;99.90;;;;;;2090765;28;20032;-73
2023/11/22 03:04:38;;;;;;;41.28;23.73;;;1.70;99.90;;;;;;2091159;28;20278;-74
2023/11/22 03:05:39;;;;;;;41.03;23.90;;;1.70;99.90;;;;;;2087135;28;20061;-75
2023/11/22 03:06:40;;;;;;;42.65;23.35;;;1.70;99.90;;;;;;2084151;28;20056;-73
2023/11/22 03:07:43;;;;;;;38.78;23.25;;;1.70;99.90;;;;;;2090629;28;20028;-72
2023/11/22 03:08:44;;;;;;;40.55;23.83;;;1.70;99.90;;;;;;2091227;28;20033;-73
2023/11/22 03:09:45;;;;;;;48.60;25.95;;;1.70;99.90;;;;;;2093637;28;20028;-73
2023/11/22 03:10:46;;;;;;;48.80;25.95;;;1.70;99.90;;;;;;2092622;28;20449;-73
2023/11/22 03:11:47;;;;;;;41.80;24.48;;;1.70;99.90;;;;;;2092672;28;20445;-73
2023/11/22 03:12:47;;;;;;;39.85;23.70;;;1.70;99.90;;;;;;2090772;28;20306;-73
2023/11/22 03:13:49;;;;;;;39.45;23.55;;;1.80;99.90;;;;;;2087865;28;20115;-73
2023/11/22 03:14:50;;;;;;;43.17;24.42;;;1.80;99.90;;;;;;2092893;28;20028;-72
2023/11/22 03:15:50;;;;;;;43.17;24.88;;;1.70;99.90;;;;;;2084786;28;20064;-73
2023/11/22 03:16:52;;;;;;;43.40;26.05;;;1.80;99.90;;;;;;2090983;28;20059;-73
2023/11/22 03:17:52;;;;;;;40.58;22.92;;;1.80;99.90;;;;;;2087915;28;20056;-72
2023/11/22 03:18:54;;;;;;;42.97;24.13;;;1.80;99.90;;;;;;2081173;28;20480;-73
2023/11/22 03:19:58;;;;;;;39.95;24.08;;;1.80;99.90;;;;;;2087436;28;20031;-73
2023/11/22 03:21:01;;;;;;;46.90;25.40;;;1.70;99.90;;;;;;2083793;28;20052;-73
2023/11/22 03:22:04;;;;;;;39.88;22.90;;;1.70;99.90;;;;;;2075665;28;20116;-73
2023/11/22 03:23:05;;;;;;;39.50;23.70;;;1.70;99.90;;;;;;2084420;28;20033;-74
2023/11/22 03:24:05;;;;;;;41.08;22.70;;;1.70;99.90;;;;;;2088160;28;20036;-73
2023/11/22 03:25:09;;;;;;;38.03;23.50;;;1.70;99.90;;;;;;2095718;28;20384;-73
2023/11/22 03:26:10;;;;;;;41.92;24.52;;;1.70;99.90;;;;;;2090827;28;20039;-73
2023/11/22 03:27:10;;;;;;;40.15;24.13;;;1.70;99.90;;;;;;2075687;28;20037;-73
2023/11/22 03:28:12;;;;;;;39.00;23.30;;;1.70;99.90;;;;;;2076080;28;20046;-73
2023/11/22 03:29:16;;;;;;;39.15;23.73;;;1.80;99.90;;;;;;2074901;28;20451;-73
2023/11/22 03:30:17;;;;;;;38.83;23.20;;;1.80;99.90;;;;;;2087074;28;20052;-72
2023/11/22 03:31:17;;;;;;;38.83;22.88;;;1.80;99.90;;;;;;2093231;28;20040;-74
2023/11/22 03:32:18;;;;;;;39.65;23.55;;;1.80;99.90;;;;;;2092435;28;20487;-73
2023/11/22 03:33:20;;;;;;;38.38;22.38;;;1.70;99.90;;;;;;2085971;28;20052;-74
2023/11/22 03:34:21;;;;;;;35.85;22.38;;;1.70;99.90;;;;;;2091266;28;20035;-75
2023/11/22 03:35:22;;;;;;;42.08;23.50;;;1.70;99.90;;;;;;2093774;28;20453;-73
2023/11/22 03:36:22;;;;;;;39.33;23.13;;;1.70;99.90;;;;;;2093051;28;20057;-74
2023/11/22 03:37:24;;;;;;;38.33;23.10;;;1.70;99.90;;;;;;2093137;28;20020;-74
2023/11/22 03:38:25;;;;;;;37.90;22.75;;;1.70;99.90;;;;;;2093225;28;20028;-74
2023/11/22 03:39:26;;;;;;;37.70;22.80;;;1.70;99.90;;;;;;2092156;28;20036;-73
2023/11/22 03:40:27;;;;;;;40.05;23.38;;;1.80;99.90;;;;;;2088703;28;20024;-73
2023/11/22 03:41:27;;;;;;;37.10;21.70;;;1.80;99.90;;;;;;2097870;28;20052;-72
2023/11/22 03:42:28;;;;;;;37.50;22.30;;;1.70;99.90;;;;;;2096686;28;20024;-73
2023/11/22 03:43:29;;;;;;;39.65;23.15;;;1.70;99.90;;;;;;2085037;28;20025;-72
2023/11/22 03:44:29;;;;;;;36.45;22.20;;;1.70;99.90;;;;;;2092325;28;20008;-73
2023/11/22 03:45:31;;;;;;;38.67;22.35;;;1.70;99.90;;;;;;2083684;28;20021;-72
2023/11/22 03:46:31;;;;;;;37.50;21.58;;;1.60;99.90;;;;;;2080356;28;20545;-73
2023/11/22 03:47:32;;;;;;;35.75;21.83;;;1.70;99.90;;;;;;2087771;28;20553;-72
2023/11/22 03:48:33;;;;;;;35.67;21.30;;;1.70;99.90;;;;;;2074982;28;20503;-73
2023/11/22 03:49:34;;;;;;;36.78;22.42;;;1.70;99.90;;;;;;2079603;28;20513;-73
2023/11/22 03:50:35;;;;;;;39.78;22.52;;;1.60;99.90;;;;;;2088040;28;20108;-72
2023/11/22 03:51:38;;;;;;;38.20;21.88;;;1.60;99.90;;;;;;2084291;28;20077;-72
2023/11/22 03:52:39;;;;;;;36.90;22.55;;;1.50;99.90;;;;;;2091764;28;20044;-72
2023/11/22 03:53:39;;;;;;;35.42;21.80;;;1.50;99.90;;;;;;2083522;28;20060;-72
2023/11/22 03:54:40;;;;;;;37.58;23.00;;;1.50;99.90;;;;;;2092391;28;20482;-72
2023/11/22 03:55:41;;;;;;;41.17;23.17;;;1.50;99.90;;;;;;2093593;28;20082;-72
2023/11/22 03:56:41;;;;;;;35.78;21.40;;;1.50;99.90;;;;;;2095565;28;20522;-73
2023/11/22 03:57:42;;;;;;;36.92;22.05;;;1.50;99.90;;;;;;2091517;28;20103;-73
2023/11/22 03:58:44;;;;;;;38.35;22.15;;;1.60;99.90;;;;;;2092004;28;20086;-73
2023/11/22 03:59:44;;;;;;;42.10;22.92;;;1.50;99.90;;;;;;2092032;28;20021;-73
2023/11/22 04:00:45;;;;;;;37.72;23.20;;;1.50;99.90;;;;;;2085978;28;20052;-74
2023/11/22 04:01:45;;;;;;;39.53;22.55;;;1.40;99.90;;;;;;2087787;28;20037;-74
2023/11/22 04:02:46;;;;;;;40.03;22.88;;;1.40;99.90;;;;;;2086168;28;20029;-72
2023/11/22 04:03:51;;;;;;;40.00;23.30;;;1.40;99.90;;;;;;2090950;28;20024;-73
2023/11/22 04:04:51;;;;;;;39.97;23.50;;;1.50;99.90;;;;;;2090524;28;20134;-72
2023/11/22 04:05:52;;;;;;;38.72;22.95;;;1.50;99.90;;;;;;2092819;28;20434;-73
2023/11/22 04:06:52;;;;;;;38.78;23.80;;;1.60;99.90;;;;;;2092219;28;20044;-72
2023/11/22 04:07:54;;;;;;;36.08;21.60;;;1.60;99.90;;;;;;2087493;28;20613;-73
2023/11/22 04:08:55;;;;;;;39.10;22.77;;;1.60;99.90;;;;;;2079919;28;20575;-73
2023/11/22 04:09:55;;;;;;;39.63;22.73;;;1.70;99.90;;;;;;2090381;28;20035;-73
2023/11/22 04:10:56;;;;;;;38.05;22.85;;;1.70;99.90;;;;;;2083639;28;20060;-74
2023/11/22 04:11:56;;;;;;;38.67;23.17;;;1.70;99.90;;;;;;2088919;28;20086;-73
2023/11/22 04:12:57;;;;;;;41.97;24.17;;;1.60;99.90;;;;;;2079386;28;20717;-73
2023/11/22 04:13:58;;;;;;;38.22;23.38;;;1.60;99.90;;;;;;2078658;28;20104;-74
2023/11/22 04:14:59;;;;;;;40.65;23.10;;;1.60;99.90;;;;;;2091515;28;20483;-74
2023/11/22 04:15:59;;;;;;;36.55;22.27;;;1.60;99.90;;;;;;2079125;28;20057;-73
2023/11/22 04:17:00;;;;;;;37.78;23.80;;;1.60;99.90;;;;;;2079244;28;20633;-73
2023/11/22 04:18:00;;;;;;;39.40;24.20;;;1.60;99.90;;;;;;2075500;28;20036;-74
2023/11/22 04:19:01;;;;;;;38.95;23.58;;;1.50;99.90;;;;;;2083667;28;20597;-73
2023/11/22 04:20:02;;;;;;;39.15;23.77;;;1.50;99.90;;;;;;2092135;28;20520;-74
2023/11/22 04:21:04;;;;;;;40.38;23.83;;;1.40;99.90;;;;;;2092294;28;20032;-73
2023/11/22 04:22:05;;;;;;;38.55;23.02;;;1.40;99.90;;;;;;2085901;28;20056;-73
2023/11/22 04:23:06;;;;;;;39.90;24.08;;;1.40;99.90;;;;;;2075820;28;20041;-74
2023/11/22 04:24:07;;;;;;;39.22;23.92;;;1.40;99.90;;;;;;2083358;28;20041;-74
2023/11/22 04:25:08;;;;;;;39.53;23.42;;;1.40;99.90;;;;;;2082940;28;20062;-75
2023/11/22 04:26:09;;;;;;;43.20;24.58;;;1.40;99.90;;;;;;2078155;28;20120;-74
2023/11/22 04:27:09;;;;;;;39.17;23.00;;;1.40;99.90;;;;;;2085758;28;20563;-74
2023/11/22 04:28:10;;;;;;;41.45;24.52;;;1.40;99.90;;;;;;2082190;28;20048;-74
2023/11/22 04:29:10;;;;;;;41.30;23.33;;;1.40;99.90;;;;;;2086200;28;20091;-73
2023/11/22 04:30:17;;;;;;;40.20;23.60;;;1.50;99.90;;;;;;2083342;28;20063;-73
2023/11/22 04:31:17;;;;;;;39.58;23.23;;;1.50;99.90;;;;;;2092135;28;20036;-73
2023/11/22 04:32:18;;;;;;;40.83;23.70;;;1.40;99.90;;;;;;2091524;28;20079;-73
2023/11/22 04:33:19;;;;;;;42.85;24.75;;;1.40;99.90;;;;;;2089265;28;20017;-73
2023/11/22 04:34:20;;;;;;;43.60;25.23;;;1.30;99.90;;;;;;2087277;28;20094;-74
2023/11/22 04:35:20;;;;;;;43.45;24.67;;;1.20;99.90;;;;;;2093159;28;20032;-74
2023/11/22 04:36:21;;;;;;;41.88;24.88;;;1.20;99.90;;;;;;2093366;28;20096;-73
2023/11/22 04:37:26;;;;;;;42.25;24.65;;;1.20;99.90;;;;;;2092750;28;20067;-73
2023/11/22 04:38:27;;;;;;;44.17;24.38;;;1.20;99.90;;;;;;2091273;28;20016;-74
2023/11/22 04:39:28;;;;;;;41.85;24.48;;;1.20;99.90;;;;;;2087375;28;20029;-74
2023/11/22 04:40:28;;;;;;;41.38;24.13;;;1.20;99.90;;;;;;2096313;28;20032;-76
2023/11/22 04:41:29;;;;;;;44.00;25.02;;;1.10;99.90;;;;;;2086988;28;20028;-71
2023/11/22 04:42:30;;;;;;;41.30;23.85;;;1.20;99.90;;;;;;2083259;28;20141;-72
2023/11/22 04:43:31;;;;;;;41.53;24.48;;;1.20;99.90;;;;;;2092215;28;20048;-74
2023/11/22 04:44:32;;;;;;;40.70;24.77;;;1.20;99.90;;;;;;2087003;28;20025;-74
2023/11/22 04:45:32;;;;;;;43.88;24.73;;;1.20;99.90;;;;;;2091148;28;20058;-73
2023/11/22 04:46:33;;;;;;;40.60;24.45;;;1.20;99.90;;;;;;2088240;28;20043;-73
2023/11/22 04:47:33;;;;;;;43.45;24.92;;;1.20;99.90;;;;;;2092183;28;20135;-73
2023/11/22 04:48:34;;;;;;;41.60;24.10;;;1.30;99.90;;;;;;2092117;28;20048;-74
2023/11/22 04:49:35;;;;;;;38.45;23.13;;;1.30;99.90;;;;;;2091377;28;20187;-73
2023/11/22 04:50:36;;;;;;;38.50;23.42;;;1.40;99.90;;;;;;2082245;28;20579;-73
2023/11/22 04:51:36;;;;;;;40.35;23.90;;;1.40;99.90;;;;;;2083143;28;20355;-74
2023/11/22 04:52:37;;;;;;;40.58;24.95;;;1.40;99.90;;;;;;2083154;28;20029;-74
2023/11/22 04:53:37;;;;;;;41.75;24.77;;;1.40;99.90;;;;;;2083341;28;20035;-75
2023/11/22 04:54:38;;;;;;;39.78;23.35;;;1.50;99.90;;;;;;2090277;28;20020;-74
2023/11/22 04:55:39;;;;;;;44.45;25.73;;;1.40;99.90;;;;;;2085093;28;20539;-74
2023/11/22 04:56:39;;;;;;;37.53;23.17;;;1.40;99.90;;;;;;2092140;28;20024;-75
2023/11/22 04:57:40;;;;;;;41.45;24.17;;;1.40;99.90;;;;;;2091745;28;20558;-74
2023/11/22 04:58:41;;;;;;;37.47;23.65;;;1.40;99.90;;;;;;2092038;28;20063;-74
2023/11/22 04:59:42;;;;;;;40.78;24.42;;;1.30;99.90;;;;;;2087559;28;20353;-74
2023/11/22 05:00:43;;;;;;;38.38;24.27;;;1.30;99.90;;;;;;2090397;28;20021;-74
2023/11/22 05:01:43;;;;;;;40.53;24.17;;;1.30;99.90;;;;;;2083464;28;20087;-76
2023/11/22 05:02:44;;;;;;;39.25;23.55;;;1.30;99.90;;;;;;2084071;28;20028;-74
2023/11/22 05:03:44;;;;;;;40.05;23.30;;;1.30;99.90;;;;;;2085001;28;20055;-73
2023/11/22 05:04:48;;;;;;;40.97;23.38;;;1.40;99.90;;;;;;2092204;28;20042;-77
2023/11/22 05:05:49;;;;;;;41.65;23.80;;;1.40;99.90;;;;;;2087399;28;20021;-74
2023/11/22 05:06:49;;;;;;;40.63;24.88;;;1.40;99.90;;;;;;2091716;28;20021;-74
2023/11/22 05:07:50;;;;;;;40.70;24.92;;;1.40;99.90;;;;;;2087564;28;20447;-74
2023/11/22 05:08:50;;;;;;;43.50;24.38;;;1.40;99.90;;;;;;2091350;28;20287;-74
2023/11/22 05:09:51;;;;;;;42.30;24.73;;;1.40;99.90;;;;;;2087464;28;20096;-75
2023/11/22 05:10:52;;;;;;;39.65;23.23;;;1.40;99.90;;;;;;2088401;28;20033;-73
2023/11/22 05:11:52;;;;;;;40.10;23.88;;;1.40;99.90;;;;;;2088610;28;20029;-75
2023/11/22 05:12:53;;;;;;;39.67;24.02;;;1.50;99.90;;;;;;2093175;28;20032;-74